This is the latest recevied weather packets stored in our database for station/object HB9TJR-8. If no packets are shown the sender has not sent any weather packets the latest 10 day(s).
| Time | Temp. | Humidity | Pressure | Rain* | Wind** | Luminosity | Snow |
|---|---|---|---|---|---|---|---|
| 1787827520 | 26.67° C | 60% | 962.7 hPa | 0 mm | - | - | - |
| 1787826719 | 26.11° C | 60% | 962.7 hPa | 0 mm | - | - | - |
| 1787825918 | 26.11° C | 60% | 962.9 hPa | 0 mm | - | - | - |
| 1787825117 | 25.56° C | 64% | 963 hPa | 0 mm | - | - | - |
| 1787824316 | 25.56° C | 67% | 963 hPa | 0 mm | - | - | - |
| 1787823515 | 25° C | 70% | 963.1 hPa | 0 mm | - | - | - |
| 1787822714 | 25° C | 71% | 963.1 hPa | 0 mm | - | - | - |
| 1787821913 | 25° C | 71% | 963.2 hPa | 0 mm | - | - | - |
| 1787821112 | 24.44° C | 71% | 963.2 hPa | 0 mm | - | - | - |
| 1787820311 | 24.44° C | 72% | 963.4 hPa | 0 mm | - | - | - |
| 1787819509 | 23.89° C | 72% | 963.4 hPa | 0 mm | - | - | - |
| 1787818708 | 23.33° C | 74% | 963.5 hPa | 0 mm | - | - | - |
| 1787817907 | 23.33° C | 73% | 963.7 hPa | 0 mm | - | - | - |
| 1787817107 | 23.33° C | 73% | 963.7 hPa | 0 mm | - | - | - |
| 1787816306 | 22.78° C | 75% | 963.7 hPa | 0 mm | - | - | - |
| 1787815504 | 22.78° C | 76% | 963.7 hPa | 0 mm | - | - | - |
| 1787814703 | 22.22° C | 76% | 963.8 hPa | 0 mm | - | - | - |
| 1787813902 | 22.22° C | 76% | 963.9 hPa | 0 mm | - | - | - |
| 1787813102 | 21.67° C | 77% | 963.9 hPa | 0 mm | - | - | - |
| 1787812300 | 21.11° C | 77% | 964 hPa | 0 mm | - | - | - |
| 1787811499 | 21.67° C | 77% | 963.7 hPa | 0 mm | - | - | - |
| 1787810698 | 21.11° C | 77% | 963.9 hPa | 0 mm | - | - | - |
| 1787770376 | 25° C | 59% | 963.2 hPa | 0 mm | - | - | - |
| 1787769575 | 25° C | 59% | 963.2 hPa | 0 mm | - | - | - |
| 1787768774 | 25° C | 58% | 963.2 hPa | 0 mm | - | - | - |
* Rain latest hour (hover to see other rain measurements)
** Current wind speed in m/s (hover to see current wind gust speed)